createdAt,value
2022-12-22T00:00:39.686Z,1028.55
2022-12-22T00:01:44.936Z,1028.47
2022-12-22T00:02:41.130Z,1028.54
2022-12-22T00:03:41.966Z,1028.54
2022-12-22T00:04:42.698Z,1028.54
2022-12-22T00:05:43.283Z,1028.53
2022-12-22T00:06:43.887Z,1028.51
2022-12-22T00:07:44.483Z,1028.52
2022-12-22T00:08:45.087Z,1028.45
2022-12-22T00:09:45.683Z,1028.58
2022-12-22T00:10:46.291Z,1028.58
2022-12-22T00:11:46.889Z,1028.54
2022-12-22T00:12:47.498Z,1028.51
2022-12-22T00:13:48.098Z,1028.53
2022-12-22T00:14:48.694Z,1028.40
2022-12-22T00:15:49.283Z,1028.47
2022-12-22T00:16:49.970Z,1028.50
2022-12-22T00:17:50.577Z,1028.49
2022-12-22T00:18:51.182Z,1028.46
2022-12-22T00:19:51.822Z,1028.47
2022-12-22T00:20:52.424Z,1028.46
2022-12-22T00:21:53.024Z,1028.44
2022-12-22T00:22:54.473Z,1028.46
2022-12-22T00:23:55.065Z,1028.43
2022-12-22T00:24:55.686Z,1028.43
2022-12-22T00:25:56.263Z,1028.41
2022-12-22T00:26:56.867Z,1028.42
2022-12-22T00:27:57.466Z,1028.39
2022-12-22T00:28:58.065Z,1028.31
2022-12-22T00:29:58.663Z,1028.29
2022-12-22T00:31:00.221Z,1028.35
2022-12-22T00:32:01.696Z,1028.38
2022-12-22T00:33:02.343Z,1028.31
2022-12-22T00:34:02.963Z,1028.31
2022-12-22T00:35:03.596Z,1028.34
2022-12-22T00:36:04.255Z,1028.29
2022-12-22T00:37:04.849Z,1028.32
2022-12-22T00:38:05.434Z,1028.32
2022-12-22T00:39:06.039Z,1028.24
2022-12-22T00:40:06.634Z,1028.24
2022-12-22T00:41:07.293Z,1028.22
2022-12-22T00:42:07.953Z,1028.26
2022-12-22T00:43:08.555Z,1028.27
2022-12-22T00:44:09.169Z,1028.20
2022-12-22T00:45:09.755Z,1028.24
2022-12-22T00:46:10.423Z,1028.29
2022-12-22T00:47:11.012Z,1028.25
2022-12-22T00:48:11.671Z,1028.17
2022-12-22T00:49:12.276Z,1028.22
2022-12-22T00:50:12.937Z,1028.20
2022-12-22T00:51:13.528Z,1028.16
2022-12-22T00:52:14.196Z,1028.18
2022-12-22T00:53:14.795Z,1028.26
2022-12-22T00:54:15.388Z,1028.23
2022-12-22T00:55:16.009Z,1028.24
2022-12-22T00:56:16.585Z,1028.25
2022-12-22T00:57:17.253Z,1028.21
2022-12-22T00:58:17.842Z,1028.31
2022-12-22T00:59:18.449Z,1028.18
2022-12-22T01:00:19.051Z,1028.15
2022-12-22T01:01:19.665Z,1028.14
2022-12-22T01:02:20.399Z,1028.25
2022-12-22T01:03:21.129Z,1028.20
2022-12-22T01:04:21.842Z,1028.25
2022-12-22T01:05:22.450Z,1028.23
2022-12-22T01:06:23.047Z,1028.16
2022-12-22T01:07:23.643Z,1028.25
2022-12-22T01:08:24.238Z,1028.17
2022-12-22T01:09:24.840Z,1028.28
2022-12-22T01:10:25.436Z,1028.23
2022-12-22T01:11:26.042Z,1028.19
2022-12-22T01:12:26.705Z,1028.24
2022-12-22T01:13:27.308Z,1028.19
2022-12-22T01:14:27.927Z,1028.21
2022-12-22T01:15:28.522Z,1028.13
2022-12-22T01:16:29.194Z,1028.18
2022-12-22T01:17:29.813Z,1028.21
2022-12-22T01:18:30.402Z,1028.24
2022-12-22T01:19:31.021Z,1028.29
2022-12-22T01:20:31.651Z,1028.19
2022-12-22T01:21:32.256Z,1028.19
2022-12-22T01:22:32.859Z,1028.22
2022-12-22T01:23:33.454Z,1028.18
2022-12-22T01:24:34.114Z,1028.18
2022-12-22T01:25:34.726Z,1028.15
2022-12-22T01:26:35.324Z,1028.14
2022-12-22T01:27:35.931Z,1028.17
2022-12-22T01:28:36.586Z,1028.24
2022-12-22T01:29:37.180Z,1028.18
2022-12-22T01:30:37.853Z,1028.17
2022-12-22T01:31:38.471Z,1028.09
2022-12-22T01:32:39.069Z,1028.14
2022-12-22T01:33:39.671Z,1028.16
2022-12-22T01:34:40.366Z,1028.12
2022-12-22T01:35:41.818Z,1028.11
2022-12-22T01:36:42.413Z,1028.02
2022-12-22T01:37:43.865Z,1027.90
2022-12-22T01:38:44.456Z,1027.93
2022-12-22T01:39:45.058Z,1027.88
2022-12-22T01:40:45.650Z,1027.94
2022-12-22T01:41:46.256Z,1027.91
2022-12-22T01:42:46.861Z,1027.88
2022-12-22T01:43:47.501Z,1027.92
2022-12-22T01:44:48.095Z,1027.86
2022-12-22T01:45:48.943Z,1027.86
2022-12-22T01:46:49.677Z,1027.93
2022-12-22T01:47:50.283Z,1028.01
2022-12-22T01:48:50.879Z,1027.97
2022-12-22T01:49:51.487Z,1027.94
2022-12-22T01:50:52.928Z,1028.01
2022-12-22T01:51:53.534Z,1028.01
2022-12-22T01:52:54.929Z,1027.92
2022-12-22T01:53:55.531Z,1027.98
2022-12-22T01:54:56.123Z,1027.97
2022-12-22T01:55:56.726Z,1028.01
2022-12-22T01:56:57.324Z,1028.03
2022-12-22T01:57:57.923Z,1028.05
2022-12-22T01:58:58.530Z,1028.03
2022-12-22T01:59:59.181Z,1028.03
2022-12-22T02:00:59.833Z,1027.97
2022-12-22T02:02:00.557Z,1028.03
2022-12-22T02:03:01.334Z,1028.02
2022-12-22T02:04:01.970Z,1028.07
2022-12-22T02:05:02.554Z,1028.09
2022-12-22T02:06:03.155Z,1028.06
2022-12-22T02:07:03.750Z,1028.11
2022-12-22T02:08:04.355Z,1028.03
2022-12-22T02:09:04.953Z,1028.08
2022-12-22T02:10:05.562Z,1028.07
2022-12-22T02:11:06.220Z,1028.06
2022-12-22T02:12:06.819Z,1028.15
2022-12-22T02:13:07.484Z,1028.16
2022-12-22T02:14:08.084Z,1028.16
2022-12-22T02:15:08.682Z,1028.12
2022-12-22T02:16:09.364Z,1028.19
2022-12-22T02:17:09.939Z,1028.19
2022-12-22T02:18:10.546Z,1028.13
2022-12-22T02:19:11.139Z,1028.12
2022-12-22T02:20:11.744Z,1028.12
2022-12-22T02:21:12.349Z,1028.20
2022-12-22T02:22:12.948Z,1028.17
2022-12-22T02:23:13.541Z,1028.18
2022-12-22T02:24:14.147Z,1028.18
2022-12-22T02:25:14.740Z,1028.18
2022-12-22T02:26:15.343Z,1028.25
2022-12-22T02:27:15.937Z,1028.31
2022-12-22T02:28:16.538Z,1028.31
2022-12-22T02:29:17.130Z,1028.31
2022-12-22T02:30:17.735Z,1028.29
2022-12-22T02:31:18.444Z,1028.34
2022-12-22T02:32:19.113Z,1028.24
2022-12-22T02:33:20.555Z,1028.34
2022-12-22T02:34:21.153Z,1028.22
2022-12-22T02:35:21.742Z,1028.28
2022-12-22T02:36:22.348Z,1028.21
2022-12-22T02:37:22.953Z,1028.29
2022-12-22T02:38:23.770Z,1028.26
2022-12-22T02:39:24.422Z,1028.24
2022-12-22T02:40:25.129Z,1028.26
2022-12-22T02:41:25.732Z,1028.25
2022-12-22T02:42:26.331Z,1028.31
2022-12-22T02:43:26.932Z,1028.23
2022-12-22T02:44:27.525Z,1028.24
2022-12-22T02:45:28.129Z,1028.27
2022-12-22T02:46:28.779Z,1028.30
2022-12-22T02:47:29.416Z,1028.28
2022-12-22T02:48:30.027Z,1028.28
2022-12-22T02:49:30.715Z,1028.32
2022-12-22T02:50:31.313Z,1028.29
2022-12-22T02:51:31.964Z,1028.33
2022-12-22T02:52:33.411Z,1028.32
2022-12-22T02:53:34.010Z,1028.34
2022-12-22T02:54:34.625Z,1028.37
2022-12-22T02:55:35.221Z,1028.39
2022-12-22T02:56:35.818Z,1028.33
2022-12-22T02:57:36.466Z,1028.36
2022-12-22T02:58:37.066Z,1028.37
2022-12-22T02:59:37.664Z,1028.34
2022-12-22T03:00:38.262Z,1028.34
2022-12-22T03:01:39.102Z,1028.37
2022-12-22T03:02:39.746Z,1028.40
2022-12-22T03:03:40.624Z,1028.40
2022-12-22T03:04:41.430Z,1028.36
2022-12-22T03:05:42.025Z,1028.33
2022-12-22T03:06:42.670Z,1028.35
2022-12-22T03:07:43.272Z,1028.31
2022-12-22T03:08:43.876Z,1028.27
2022-12-22T03:09:44.467Z,1028.25
2022-12-22T03:10:45.060Z,1028.31
2022-12-22T03:11:45.665Z,1028.31
2022-12-22T03:12:46.254Z,1028.35
2022-12-22T03:13:46.859Z,1028.29
2022-12-22T03:14:47.451Z,1028.26
2022-12-22T03:15:48.089Z,1028.21
2022-12-22T03:16:48.714Z,1028.25
2022-12-22T03:17:49.287Z,1028.21
2022-12-22T03:18:49.883Z,1028.13
2022-12-22T03:19:50.561Z,1028.10
2022-12-22T03:20:51.139Z,1028.01
2022-12-22T03:21:51.772Z,1028.04
2022-12-22T03:22:52.371Z,1028.08
2022-12-22T03:23:52.975Z,1028.08
2022-12-22T03:24:53.569Z,1028.14
2022-12-22T03:25:54.169Z,1028.18
2022-12-22T03:26:54.767Z,1028.24
2022-12-22T03:27:55.365Z,1028.18
2022-12-22T03:28:55.963Z,1028.18
2022-12-22T03:29:56.598Z,1028.22
2022-12-22T03:30:57.230Z,1028.19
2022-12-22T03:31:57.981Z,1028.19
2022-12-22T03:32:58.632Z,1028.19
2022-12-22T03:33:59.263Z,1028.12
2022-12-22T03:34:59.856Z,1028.14
2022-12-22T03:36:00.461Z,1028.19
2022-12-22T03:37:01.051Z,1028.17
2022-12-22T03:38:01.664Z,1028.21
2022-12-22T03:39:02.244Z,1028.17
2022-12-22T03:40:02.857Z,1028.13
2022-12-22T03:41:03.436Z,1028.14
2022-12-22T03:42:04.842Z,1028.09
2022-12-22T03:43:05.448Z,1028.14
2022-12-22T03:44:06.043Z,1028.07
2022-12-22T03:45:06.644Z,1028.00
2022-12-22T03:46:07.306Z,1028.01
2022-12-22T03:47:08.034Z,1027.95
2022-12-22T03:48:08.685Z,1027.93
2022-12-22T03:49:09.280Z,1027.87
2022-12-22T03:50:09.882Z,1027.91
2022-12-22T03:51:10.479Z,1027.79
2022-12-22T03:52:11.127Z,1027.67
2022-12-22T03:53:11.730Z,1027.67
2022-12-22T03:54:12.328Z,1027.68
2022-12-22T03:55:12.918Z,1027.68
2022-12-22T03:56:13.578Z,1027.74
2022-12-22T03:57:14.182Z,1027.67
2022-12-22T03:58:14.897Z,1027.77
2022-12-22T03:59:15.491Z,1027.76
2022-12-22T04:00:16.240Z,1027.76
2022-12-22T04:01:17.724Z,1027.66
2022-12-22T04:02:18.429Z,1027.78
2022-12-22T04:03:19.036Z,1027.78
2022-12-22T04:04:19.659Z,1027.77
2022-12-22T04:05:20.255Z,1027.82
2022-12-22T04:06:20.853Z,1027.79
2022-12-22T04:07:21.448Z,1027.78
2022-12-22T04:08:22.052Z,1027.73
2022-12-22T04:09:22.715Z,1027.77
2022-12-22T04:10:23.306Z,1027.84
2022-12-22T04:11:23.899Z,1027.96
2022-12-22T04:12:24.503Z,1027.96
2022-12-22T04:13:25.102Z,1028.00
2022-12-22T04:14:33.155Z,1028.01
2022-12-22T04:15:26.363Z,1028.05
2022-12-22T04:16:27.026Z,1028.05
2022-12-22T04:17:27.650Z,1028.08
2022-12-22T04:18:28.265Z,1028.11
2022-12-22T04:19:29.700Z,1028.01
2022-12-22T04:20:30.320Z,1028.02
2022-12-22T04:21:30.909Z,1028.08
2022-12-22T04:22:31.521Z,1028.00
2022-12-22T04:23:32.112Z,1028.10
2022-12-22T04:24:32.720Z,1028.05
2022-12-22T04:25:33.302Z,1028.03
2022-12-22T04:26:33.904Z,1028.17
2022-12-22T04:27:34.500Z,1028.17
2022-12-22T04:28:35.185Z,1028.12
2022-12-22T04:29:35.804Z,1028.14
2022-12-22T04:30:36.400Z,1028.26
2022-12-22T04:31:37.024Z,1028.25
2022-12-22T04:32:37.651Z,1028.22
2022-12-22T04:33:38.231Z,1028.17
2022-12-22T04:34:38.896Z,1028.23
2022-12-22T04:35:39.558Z,1028.20
2022-12-22T04:36:40.166Z,1028.19
2022-12-22T04:37:40.754Z,1028.20
2022-12-22T04:38:41.376Z,1028.22
2022-12-22T04:39:42.014Z,1028.26
2022-12-22T04:40:42.677Z,1028.19
2022-12-22T04:41:43.270Z,1028.20
2022-12-22T04:42:43.872Z,1028.14
2022-12-22T04:43:44.466Z,1028.17
2022-12-22T04:44:45.067Z,1028.17
2022-12-22T04:45:45.789Z,1028.23
2022-12-22T04:46:46.400Z,1028.19
2022-12-22T04:47:46.990Z,1028.16
2022-12-22T04:48:47.604Z,1028.12
2022-12-22T04:49:48.192Z,1028.07
2022-12-22T04:50:48.903Z,1028.13
2022-12-22T04:51:49.498Z,1028.14
2022-12-22T04:52:50.100Z,1028.11
2022-12-22T04:53:50.698Z,1028.14
2022-12-22T04:54:51.301Z,1028.14
2022-12-22T04:55:52.039Z,1028.09
2022-12-22T04:56:52.642Z,1028.11
2022-12-22T04:57:53.256Z,1028.10
2022-12-22T04:58:53.842Z,1028.14
2022-12-22T04:59:54.485Z,1028.16
2022-12-22T05:00:55.951Z,1028.11
2022-12-22T05:01:56.686Z,1028.08
2022-12-22T05:02:57.600Z,1028.16
2022-12-22T05:03:58.327Z,1028.09
2022-12-22T05:04:58.920Z,1028.05
2022-12-22T05:05:59.521Z,1028.04
2022-12-22T05:07:00.164Z,1028.05
2022-12-22T05:08:00.761Z,1028.04
2022-12-22T05:09:01.368Z,1028.04
2022-12-22T05:10:01.961Z,1028.03
2022-12-22T05:11:02.575Z,1028.06
2022-12-22T05:12:03.162Z,1028.03
2022-12-22T05:13:03.784Z,1027.97
2022-12-22T05:14:07.399Z,1027.97
2022-12-22T05:15:05.962Z,1027.97
2022-12-22T05:16:06.597Z,1028.02
2022-12-22T05:17:08.187Z,1028.06
2022-12-22T05:18:08.815Z,1028.04
2022-12-22T05:19:09.423Z,1027.96
2022-12-22T05:20:10.013Z,1028.06
2022-12-22T05:21:10.614Z,1028.06
2022-12-22T05:22:11.210Z,1028.13
2022-12-22T05:23:11.814Z,1028.04
2022-12-22T05:24:12.402Z,1028.01
2022-12-22T05:25:13.017Z,1028.13
2022-12-22T05:26:13.612Z,1028.10
2022-12-22T05:27:14.258Z,1028.10
2022-12-22T05:28:14.851Z,1028.08
2022-12-22T05:29:15.457Z,1028.05
2022-12-22T05:30:16.054Z,1028.10
2022-12-22T05:31:16.783Z,1028.05
2022-12-22T05:32:17.411Z,1028.09
2022-12-22T05:33:18.011Z,1028.11
2022-12-22T05:34:18.606Z,1028.05
2022-12-22T05:35:19.206Z,1028.09
2022-12-22T05:36:19.799Z,1028.10
2022-12-22T05:37:20.401Z,1028.21
2022-12-22T05:38:20.994Z,1028.18
2022-12-22T05:39:21.597Z,1028.12
2022-12-22T05:40:22.193Z,1028.15
2022-12-22T05:41:22.792Z,1028.24
2022-12-22T05:42:23.385Z,1028.21
2022-12-22T05:43:23.988Z,1028.15
2022-12-22T05:44:24.587Z,1028.22
2022-12-22T05:45:25.204Z,1028.19
2022-12-22T05:46:25.827Z,1028.20
2022-12-22T05:47:26.449Z,1028.26
2022-12-22T05:48:32.168Z,1028.21
2022-12-22T05:49:28.639Z,1028.25
2022-12-22T05:50:29.231Z,1028.26
2022-12-22T05:51:29.833Z,1028.24
2022-12-22T05:52:30.577Z,1028.27
2022-12-22T05:53:31.183Z,1028.31
2022-12-22T05:54:31.772Z,1028.33
2022-12-22T05:55:32.371Z,1028.33
2022-12-22T05:56:32.966Z,1028.28
2022-12-22T05:57:33.564Z,1028.28
2022-12-22T05:58:34.153Z,1028.30
2022-12-22T05:59:34.757Z,1028.23
2022-12-22T06:00:35.364Z,1028.23
2022-12-22T06:01:36.030Z,1028.19
2022-12-22T06:02:36.687Z,1028.21
2022-12-22T06:03:37.557Z,1028.20
2022-12-22T06:04:38.266Z,1028.16
2022-12-22T06:05:38.871Z,1028.22
2022-12-22T06:06:39.516Z,1028.16
2022-12-22T06:07:40.127Z,1028.19
2022-12-22T06:08:40.737Z,1028.20
2022-12-22T06:09:41.350Z,1028.21
2022-12-22T06:10:41.947Z,1028.16
2022-12-22T06:11:42.685Z,1028.23
2022-12-22T06:12:43.280Z,1028.20
2022-12-22T06:13:43.892Z,1028.19
2022-12-22T06:14:44.526Z,1028.22
2022-12-22T06:15:45.169Z,1028.16
2022-12-22T06:16:46.760Z,1028.16
2022-12-22T06:17:47.366Z,1028.15
2022-12-22T06:18:47.962Z,1028.16
2022-12-22T06:19:48.563Z,1028.13
2022-12-22T06:20:49.172Z,1028.11
2022-12-22T06:21:49.949Z,1028.13
2022-12-22T06:22:50.541Z,1028.14
2022-12-22T06:23:51.146Z,1028.08
2022-12-22T06:24:51.743Z,1028.18
2022-12-22T06:25:52.344Z,1028.19
2022-12-22T06:26:52.940Z,1028.09
2022-12-22T06:27:53.550Z,1028.20
2022-12-22T06:28:54.210Z,1028.08
2022-12-22T06:29:54.812Z,1028.08
2022-12-22T06:30:55.480Z,1028.09
2022-12-22T06:31:56.116Z,1028.09
2022-12-22T06:32:56.862Z,1028.08
2022-12-22T06:33:57.511Z,1028.08
2022-12-22T06:34:58.107Z,1028.08
2022-12-22T06:35:59.658Z,1028.04
2022-12-22T06:37:00.349Z,1028.05
2022-12-22T06:38:00.947Z,1028.01
2022-12-22T06:39:01.540Z,1028.01
2022-12-22T06:40:02.150Z,1028.13
2022-12-22T06:41:04.097Z,1028.07
2022-12-22T06:42:04.738Z,1028.10
2022-12-22T06:43:08.727Z,1028.10
2022-12-22T06:44:05.994Z,1028.17
2022-12-22T06:45:06.588Z,1028.17
2022-12-22T06:46:07.353Z,1028.16
2022-12-22T06:47:07.856Z,1028.20
2022-12-22T06:48:08.447Z,1028.19
2022-12-22T06:49:09.040Z,1028.19
2022-12-22T06:50:09.645Z,1028.24
2022-12-22T06:51:10.241Z,1028.25
2022-12-22T06:52:10.843Z,1028.29
2022-12-22T06:53:11.437Z,1028.26
2022-12-22T06:54:12.038Z,1028.36
2022-12-22T06:55:12.642Z,1028.33
2022-12-22T06:56:13.236Z,1028.27
2022-12-22T06:57:13.847Z,1028.39
2022-12-22T06:58:14.474Z,1028.40
2022-12-22T06:59:15.064Z,1028.31
2022-12-22T07:00:15.669Z,1028.38
2022-12-22T07:01:16.297Z,1028.29
2022-12-22T07:02:17.177Z,1028.37
2022-12-22T07:03:18.068Z,1028.38
2022-12-22T07:04:18.733Z,1028.45
2022-12-22T07:05:19.335Z,1028.45
2022-12-22T07:06:19.931Z,1028.42
2022-12-22T07:07:20.531Z,1028.42
2022-12-22T07:08:21.130Z,1028.45
2022-12-22T07:09:21.728Z,1028.45
2022-12-22T07:10:22.323Z,1028.44
2022-12-22T07:11:22.925Z,1028.38
2022-12-22T07:12:23.517Z,1028.51
2022-12-22T07:13:24.266Z,1028.51
2022-12-22T07:14:25.003Z,1028.45
2022-12-22T07:15:25.613Z,1028.56
2022-12-22T07:16:26.332Z,1028.51
2022-12-22T07:17:26.863Z,1028.55
2022-12-22T07:18:27.461Z,1028.49
2022-12-22T07:19:28.114Z,1028.47
2022-12-22T07:20:28.760Z,1028.47
2022-12-22T07:21:29.349Z,1028.44
2022-12-22T07:22:31.125Z,1028.47
2022-12-22T07:23:31.534Z,1028.39
2022-12-22T07:24:32.130Z,1028.47
2022-12-22T07:25:32.729Z,1028.41
2022-12-22T07:26:33.321Z,1028.41
2022-12-22T07:27:34.046Z,1028.30
2022-12-22T07:28:34.615Z,1028.39
2022-12-22T07:29:35.216Z,1028.34
2022-12-22T07:30:35.806Z,1028.41
2022-12-22T07:31:36.486Z,1028.47
2022-12-22T07:32:37.123Z,1028.35
2022-12-22T07:33:37.726Z,1028.37
2022-12-22T07:34:38.317Z,1028.38
2022-12-22T07:35:38.917Z,1028.35
2022-12-22T07:36:39.558Z,1028.39
2022-12-22T07:37:40.160Z,1028.40
2022-12-22T07:38:41.609Z,1028.39
2022-12-22T07:39:42.205Z,1028.44
2022-12-22T07:40:44.348Z,1028.38
2022-12-22T07:41:44.396Z,1028.44
2022-12-22T07:42:45.002Z,1028.46
2022-12-22T07:43:45.593Z,1028.44
2022-12-22T07:44:46.197Z,1028.43
2022-12-22T07:45:46.851Z,1028.46
2022-12-22T07:46:47.592Z,1028.44
2022-12-22T07:47:48.219Z,1028.51
2022-12-22T07:48:48.869Z,1028.50
2022-12-22T07:49:49.537Z,1028.49
2022-12-22T07:50:50.109Z,1028.51
2022-12-22T07:51:51.560Z,1028.55
2022-12-22T07:52:52.156Z,1028.63
2022-12-22T07:53:52.825Z,1028.57
2022-12-22T07:54:53.424Z,1028.62
2022-12-22T07:55:54.019Z,1028.64
2022-12-22T07:56:54.611Z,1028.58
2022-12-22T07:57:55.214Z,1028.55
2022-12-22T07:58:55.808Z,1028.61
2022-12-22T07:59:56.417Z,1028.49
2022-12-22T08:00:57.005Z,1028.57
2022-12-22T08:01:58.665Z,1028.54
2022-12-22T08:03:00.343Z,1028.51
2022-12-22T08:04:01.064Z,1028.44
2022-12-22T08:05:01.766Z,1028.48
2022-12-22T08:06:02.390Z,1028.43
2022-12-22T08:07:02.985Z,1028.53
2022-12-22T08:08:03.597Z,1028.45
2022-12-22T08:09:04.192Z,1028.48
2022-12-22T08:10:04.807Z,1028.48
2022-12-22T08:11:05.388Z,1028.49
2022-12-22T08:12:05.993Z,1028.50
2022-12-22T08:13:06.646Z,1028.42
2022-12-22T08:14:07.285Z,1028.48
2022-12-22T08:15:07.947Z,1028.44
2022-12-22T08:16:08.591Z,1028.46
2022-12-22T08:17:09.190Z,1028.50
2022-12-22T08:18:09.793Z,1028.53
2022-12-22T08:19:10.466Z,1028.53
2022-12-22T08:20:11.060Z,1028.56
2022-12-22T08:21:11.654Z,1028.53
2022-12-22T08:22:12.272Z,1028.54
2022-12-22T08:23:12.856Z,1028.51
2022-12-22T08:24:13.465Z,1028.57
2022-12-22T08:25:14.062Z,1028.66
2022-12-22T08:26:14.685Z,1028.57
2022-12-22T08:27:18.286Z,1028.63
2022-12-22T08:28:16.877Z,1028.59
2022-12-22T08:29:17.471Z,1028.61
2022-12-22T08:30:18.135Z,1028.57
2022-12-22T08:31:18.779Z,1028.57
2022-12-22T08:32:19.383Z,1028.62
2022-12-22T08:33:19.984Z,1028.62
2022-12-22T08:34:20.733Z,1028.62
2022-12-22T08:35:21.330Z,1028.63
2022-12-22T08:36:21.994Z,1028.65
2022-12-22T08:37:22.594Z,1028.66
2022-12-22T08:38:23.186Z,1028.68
2022-12-22T08:39:23.789Z,1028.73
2022-12-22T08:40:24.508Z,1028.73
2022-12-22T08:41:25.279Z,1028.80
2022-12-22T08:42:25.879Z,1028.84
2022-12-22T08:43:26.473Z,1028.78
2022-12-22T08:44:27.940Z,1028.86
2022-12-22T08:45:28.518Z,1028.89
2022-12-22T08:46:29.184Z,1028.92
2022-12-22T08:47:29.963Z,1028.89
2022-12-22T08:48:30.490Z,1028.96
2022-12-22T08:49:31.089Z,1028.94
2022-12-22T08:50:31.733Z,1028.93
2022-12-22T08:51:32.329Z,1028.99
2022-12-22T08:52:32.947Z,1028.94
2022-12-22T08:54:04.430Z,1028.95
2022-12-22T08:54:35.129Z,1029.00
2022-12-22T08:55:35.733Z,1028.94
2022-12-22T08:56:36.327Z,1028.94
2022-12-22T08:57:36.998Z,1028.95
2022-12-22T08:58:37.592Z,1029.05
2022-12-22T08:59:38.265Z,1028.99
2022-12-22T09:00:38.906Z,1029.08
2022-12-22T09:01:40.587Z,1029.12
2022-12-22T09:02:41.339Z,1029.10
2022-12-22T09:03:42.004Z,1029.15
2022-12-22T09:04:42.605Z,1029.16
2022-12-22T09:05:43.198Z,1029.15
2022-12-22T09:06:43.802Z,1029.21
2022-12-22T09:07:44.391Z,1029.17
2022-12-22T09:08:45.000Z,1029.20
2022-12-22T09:09:45.590Z,1029.21
2022-12-22T09:10:46.193Z,1029.23
2022-12-22T09:11:46.857Z,1029.27
2022-12-22T09:12:47.454Z,1029.23
2022-12-22T09:13:48.053Z,1029.24
2022-12-22T09:14:48.657Z,1029.26
2022-12-22T09:15:49.258Z,1029.25
2022-12-22T09:16:49.921Z,1029.18
2022-12-22T09:17:50.536Z,1029.18
2022-12-22T09:18:51.152Z,1029.12
2022-12-22T09:19:51.767Z,1029.16
2022-12-22T09:20:52.369Z,1029.19
2022-12-22T09:21:52.978Z,1029.23
2022-12-22T09:22:53.579Z,1029.16
2022-12-22T09:23:54.241Z,1029.21
2022-12-22T09:24:54.839Z,1029.24
2022-12-22T09:25:55.428Z,1029.27
2022-12-22T09:26:56.031Z,1029.29
2022-12-22T09:27:56.624Z,1029.29
2022-12-22T09:28:57.226Z,1029.36
2022-12-22T09:29:57.826Z,1029.32
2022-12-22T09:30:58.423Z,1029.42
2022-12-22T09:31:59.074Z,1029.37
2022-12-22T09:32:59.725Z,1029.39
2022-12-22T09:34:00.337Z,1029.41
2022-12-22T09:35:00.979Z,1029.41
2022-12-22T09:36:01.567Z,1029.45
2022-12-22T09:37:02.171Z,1029.53
2022-12-22T09:38:02.914Z,1029.52
2022-12-22T09:39:03.514Z,1029.43
2022-12-22T09:40:04.106Z,1029.52
2022-12-22T09:41:04.707Z,1029.44
2022-12-22T09:42:05.303Z,1029.53
2022-12-22T09:43:05.901Z,1029.45
2022-12-22T09:44:06.494Z,1029.51
2022-12-22T09:45:09.866Z,1029.53
2022-12-22T09:46:08.927Z,1029.53
2022-12-22T09:47:10.340Z,1029.55
2022-12-22T09:48:10.983Z,1029.55
2022-12-22T09:49:11.587Z,1029.54
2022-12-22T09:50:12.187Z,1029.59
2022-12-22T09:51:12.796Z,1029.52
2022-12-22T09:52:13.578Z,1029.53
2022-12-22T09:53:14.178Z,1029.60
2022-12-22T09:54:14.784Z,1029.69
2022-12-22T09:55:15.382Z,1029.66
2022-12-22T09:56:15.969Z,1029.74
2022-12-22T09:57:16.574Z,1029.69
2022-12-22T09:58:22.203Z,1029.76
2022-12-22T09:59:17.838Z,1029.65
2022-12-22T10:00:18.489Z,1029.75
2022-12-22T10:01:19.139Z,1029.73
2022-12-22T10:02:19.942Z,1029.73
2022-12-22T10:03:20.610Z,1029.72
2022-12-22T10:04:21.227Z,1029.72
2022-12-22T10:05:21.830Z,1029.74
2022-12-22T10:06:22.424Z,1029.74
2022-12-22T10:07:23.025Z,1029.69
2022-12-22T10:08:23.625Z,1029.69
2022-12-22T10:09:51.788Z,1029.74
2022-12-22T10:10:25.964Z,1029.67
2022-12-22T10:11:26.566Z,1029.76
2022-12-22T10:12:27.177Z,1029.87
2022-12-22T10:13:27.763Z,1029.73
2022-12-22T10:14:28.357Z,1029.83
2022-12-22T10:15:28.963Z,1029.81
2022-12-22T10:16:29.609Z,1029.81
2022-12-22T10:17:30.203Z,1029.86
2022-12-22T10:18:30.802Z,1029.84
2022-12-22T10:19:31.398Z,1029.86
2022-12-22T10:20:32.010Z,1029.78
2022-12-22T10:21:32.686Z,1029.83
2022-12-22T10:22:33.280Z,1029.81
2022-12-22T10:23:33.877Z,1029.82
2022-12-22T10:24:34.471Z,1029.84
2022-12-22T10:26:00.332Z,1029.89
2022-12-22T10:26:36.620Z,1029.79
2022-12-22T10:27:42.089Z,1029.85
2022-12-22T10:28:38.869Z,1029.86
2022-12-22T10:29:39.536Z,1029.81
2022-12-22T10:30:40.130Z,1029.89
2022-12-22T10:31:40.748Z,1029.84
2022-12-22T10:32:41.392Z,1029.89
2022-12-22T10:33:46.799Z,1029.92
2022-12-22T10:34:42.659Z,1029.87
2022-12-22T10:35:43.262Z,1029.90
2022-12-22T10:36:43.864Z,1029.92
2022-12-22T10:37:44.572Z,1029.84
2022-12-22T10:38:45.194Z,1029.91
2022-12-22T10:39:45.792Z,1029.82
2022-12-22T10:40:47.403Z,1029.88
2022-12-22T10:41:48.007Z,1029.92
2022-12-22T10:42:49.466Z,1029.94
2022-12-22T10:43:50.068Z,1029.88
2022-12-22T10:44:50.671Z,1029.99
2022-12-22T10:45:51.309Z,1029.97
2022-12-22T10:46:51.905Z,1030.03
2022-12-22T10:47:52.563Z,1030.04
2022-12-22T10:48:53.253Z,1029.96
2022-12-22T10:50:05.328Z,1029.99
2022-12-22T10:51:05.969Z,1029.97
2022-12-22T10:52:06.573Z,1029.97
2022-12-22T10:53:07.165Z,1030.01
2022-12-22T10:54:07.780Z,1029.96
2022-12-22T10:55:08.369Z,1030.01
2022-12-22T10:56:08.964Z,1029.97
2022-12-22T10:57:09.569Z,1029.90
2022-12-22T10:58:10.167Z,1030.05
2022-12-22T10:59:10.832Z,1030.03
2022-12-22T11:00:11.445Z,1030.07
2022-12-22T11:01:12.059Z,1030.03
2022-12-22T11:02:12.851Z,1029.96
2022-12-22T11:03:17.539Z,1030.05
2022-12-22T11:04:15.249Z,1030.02
2022-12-22T11:05:15.911Z,1030.07
2022-12-22T11:06:16.537Z,1030.05
2022-12-22T11:07:17.145Z,1030.05
2022-12-22T11:08:17.758Z,1030.00
2022-12-22T11:09:33.147Z,1030.12
2022-12-22T11:10:19.935Z,1030.03
2022-12-22T11:11:20.526Z,1030.05
2022-12-22T11:12:21.138Z,1030.07
2022-12-22T11:13:21.733Z,1029.98
2022-12-22T11:14:23.122Z,1029.98
2022-12-22T11:15:24.872Z,1029.95
2022-12-22T11:16:25.344Z,1029.89
2022-12-22T11:17:25.974Z,1029.95
2022-12-22T11:18:26.589Z,1029.89
2022-12-22T11:19:27.169Z,1029.91
2022-12-22T11:20:27.774Z,1029.90
2022-12-22T11:21:28.381Z,1029.83
2022-12-22T11:22:28.981Z,1029.84
2022-12-22T11:23:29.644Z,1029.78
2022-12-22T11:24:30.243Z,1029.76
2022-12-22T11:25:30.842Z,1029.79
2022-12-22T11:26:31.436Z,1029.76
2022-12-22T11:27:32.031Z,1029.81
2022-12-22T11:28:32.634Z,1029.74
2022-12-22T11:29:33.230Z,1029.81
2022-12-22T11:30:33.854Z,1029.74
2022-12-22T11:31:34.569Z,1029.69
2022-12-22T11:32:35.210Z,1029.70
2022-12-22T11:33:35.965Z,1029.73
2022-12-22T11:34:36.619Z,1029.69
2022-12-22T11:35:37.229Z,1029.68
2022-12-22T11:36:37.813Z,1029.72
2022-12-22T11:37:38.442Z,1029.61
2022-12-22T11:38:39.068Z,1029.72
2022-12-22T11:39:39.668Z,1029.63
2022-12-22T11:40:40.266Z,1029.73
2022-12-22T11:41:40.861Z,1029.74
2022-12-22T11:42:41.466Z,1029.74
2022-12-22T11:43:42.081Z,1029.76
2022-12-22T11:44:42.684Z,1029.74
2022-12-22T11:45:43.813Z,1029.74
2022-12-22T11:46:44.673Z,1029.74
2022-12-22T11:47:45.352Z,1029.64
2022-12-22T11:48:45.965Z,1029.74
2022-12-22T11:49:46.558Z,1029.64
2022-12-22T11:51:01.162Z,1029.74
2022-12-22T11:51:47.855Z,1029.70
2022-12-22T11:52:48.459Z,1029.62
2022-12-22T11:53:49.113Z,1029.65
2022-12-22T11:54:49.709Z,1029.68
2022-12-22T11:55:50.304Z,1029.74
2022-12-22T11:56:50.907Z,1029.77
2022-12-22T11:57:51.503Z,1029.76
2022-12-22T11:58:52.110Z,1029.74
2022-12-22T11:59:52.749Z,1029.75
2022-12-22T12:01:15.044Z,1029.74
2022-12-22T12:01:55.063Z,1029.78
2022-12-22T12:02:55.747Z,1029.72
2022-12-22T12:03:56.399Z,1029.77
2022-12-22T12:04:57.005Z,1029.72
2022-12-22T12:05:57.607Z,1029.72
2022-12-22T12:06:58.199Z,1029.71
2022-12-22T12:07:58.804Z,1029.74
2022-12-22T12:08:59.400Z,1029.68
2022-12-22T12:10:00.043Z,1029.67
2022-12-22T12:11:00.647Z,1029.72
2022-12-22T12:12:01.242Z,1029.67
2022-12-22T12:13:01.850Z,1029.69
2022-12-22T12:14:02.514Z,1029.62